Terminal Aerodrome Forecast
Issued by NWS Atlanta, GA

Home | Current Version | Previous Version | Text Only | Print | Product List | Glossary On
Versions: 1 2 3 4 5 6 7 8 9 10 11 12 13 14 15 16 17 18 19 20 21 22 23 24 25 26 27 28 29 30 31 32 33 34 35 36
000
FTUS42 KFFC 230333 AAB
TAFATL
TAF AMD
KATL 230333Z 2304/2406 10008KT P6SM BKN025
     FM230800 08012KT 5SM -RA BR OVC008
     FM231400 10013G18KT 2SM SHRA BR OVC006 PROB30 2317/2321 2SM
      TSRA OVC015CB
     FM232300 15010G18KT 4SM BR OVC009
     FM240500 19007KT 4SM BR BKN008=

USA.gov is the U.S. government's official web portal to all federal, state and local government web resources and services.